Time;durP1;ratioP1;P1;durP2;ratioP2;P2;SDS_P1;SDS_P2;PMS_P1;PMS_P2;Temp;Humidity;BMP_temperature;BMP_pressure;BME280_temperature;BME280_humidity;BME280_pressure;Samples;Min_cycle;Max_cycle;Signal;HPM_P1;HPM_P2
2022/12/05 00:02:04;;;;;;;57.17;20.33;;;;;;;3.70;100.00;101336.63;5073337;28;20865;-71
2022/12/05 00:04:31;;;;;;;39.87;16.90;;;;;;;3.68;100.00;101339.56;5074532;28;20434;-70
2022/12/05 00:06:59;;;;;;;52.97;16.97;;;;;;;3.69;100.00;101338.50;5073945;28;20481;-70
2022/12/05 00:09:25;;;;;;;53.77;17.77;;;;;;;3.70;100.00;101332.09;5074209;28;20476;-69
2022/12/05 00:11:52;;;;;;;57.30;19.87;;;;;;;3.63;100.00;101334.09;5071099;28;20861;-69
2022/12/05 00:14:19;;;;;;;52.57;16.83;;;;;;;3.65;100.00;101329.31;5072660;28;20496;-70
2022/12/05 00:16:45;;;;;;;59.80;18.50;;;;;;;3.69;100.00;101333.16;5072199;28;20500;-69
2022/12/05 00:19:14;;;;;;;63.77;18.73;;;;;;;3.69;100.00;101343.06;5074224;28;20979;-69
2022/12/05 00:21:42;;;;;;;40.67;16.93;;;;;;;3.67;100.00;101339.78;5072798;28;20784;-70
2022/12/05 00:24:13;;;;;;;39.67;15.60;;;;;;;3.71;100.00;101348.97;5067418;28;20984;-69
2022/12/05 00:26:39;;;;;;;44.73;17.37;;;;;;;3.74;100.00;101352.00;5073334;28;20430;-69
2022/12/05 00:29:06;;;;;;;54.10;17.70;;;;;;;3.65;100.00;101341.88;5072345;28;20928;-69
2022/12/05 00:31:32;;;;;;;59.53;18.57;;;;;;;3.66;100.00;101343.50;5073322;28;20481;-69
2022/12/05 00:34:01;;;;;;;50.90;15.67;;;;;;;3.70;100.00;101347.34;5070823;28;20540;-69
2022/12/05 00:36:29;;;;;;;49.87;18.43;;;;;;;3.76;100.00;101343.72;5073357;28;20444;-69
2022/12/05 00:38:58;;;;;;;51.33;15.73;;;;;;;3.73;100.00;101345.03;5072182;28;20477;-70
2022/12/05 00:41:28;;;;;;;62.40;19.33;;;;;;;3.72;100.00;101334.56;5072634;28;20453;-69
2022/12/05 00:44:00;;;;;;;49.20;17.60;;;;;;;3.75;100.00;101337.53;5059935;28;20457;-69
2022/12/05 00:46:28;;;;;;;43.97;15.80;;;;;;;3.61;100.00;101341.53;5072727;28;20449;-69
2022/12/05 00:48:57;;;;;;;42.57;16.20;;;;;;;3.62;100.00;101340.50;5072434;28;21001;-69
2022/12/05 00:51:27;;;;;;;45.73;19.07;;;;;;;3.61;100.00;101341.53;5072563;28;20577;-69
2022/12/05 00:53:54;;;;;;;47.50;17.70;;;;;;;3.61;100.00;101336.19;5070947;28;20515;-69
2022/12/05 00:56:23;;;;;;;45.80;15.70;;;;;;;3.60;100.00;101339.13;5071103;28;20536;-69
2022/12/05 00:58:54;;;;;;;56.23;17.73;;;;;;;3.61;100.00;101335.38;5072666;28;20509;-69
2022/12/05 01:01:23;;;;;;;52.57;18.37;;;;;;;3.59;100.00;101340.16;5072773;28;20536;-69
2022/12/05 01:03:52;;;;;;;58.40;18.60;;;;;;;3.69;100.00;101321.63;5072122;28;20548;-69
2022/12/05 01:06:19;;;;;;;51.00;16.07;;;;;;;3.62;100.00;101326.28;5071373;28;20954;-70
2022/12/05 01:08:46;;;;;;;44.83;16.30;;;;;;;3.57;100.00;101318.16;5072747;28;20485;-69
2022/12/05 01:11:16;;;;;;;48.77;19.07;;;;;;;3.58;100.00;101322.44;5071191;28;20484;-69
2022/12/05 01:13:43;;;;;;;46.07;16.37;;;;;;;3.58;100.00;101312.53;5072642;28;20456;-69
2022/12/05 01:16:15;;;;;;;45.13;17.30;;;;;;;3.61;100.00;101309.41;5071202;28;20458;-69
2022/12/05 01:18:42;;;;;;;67.90;19.97;;;;;;;3.61;100.00;101308.59;5060066;28;20465;-69
2022/12/05 01:21:08;;;;;;;50.23;17.60;;;;;;;3.58;100.00;101304.50;5072573;28;20893;-69
2022/12/05 01:23:35;;;;;;;55.33;19.23;;;;;;;3.63;100.00;101299.28;5072530;28;20457;-68
2022/12/05 01:26:06;;;;;;;44.13;16.33;;;;;;;3.68;100.00;101299.38;5070149;28;20463;-69
2022/12/05 01:28:33;;;;;;;41.93;17.23;;;;;;;3.64;100.00;101297.41;5071358;28;20488;-70
2022/12/05 01:31:05;;;;;;;54.20;18.63;;;;;;;3.67;100.00;101302.28;5073265;28;20876;-69
2022/12/05 01:33:33;;;;;;;58.37;17.70;;;;;;;3.63;100.00;101301.13;5072030;28;20559;-69
2022/12/05 01:36:00;;;;;;;60.90;17.77;;;;;;;3.67;100.00;101303.09;5073192;28;20433;-69
2022/12/05 01:38:27;;;;;;;45.13;15.43;;;;;;;3.67;100.00;101297.72;5070903;28;20481;-69
2022/12/05 01:41:00;;;;;;;56.60;17.90;;;;;;;3.68;100.00;101304.75;5071708;28;20464;-69
2022/12/05 01:43:27;;;;;;;50.70;18.13;;;;;;;3.74;100.00;101309.13;5071929;28;20453;-68
2022/12/05 01:45:53;;;;;;;54.13;19.40;;;;;;;3.74;100.00;101297.59;5070706;28;20457;-69
2022/12/05 01:48:25;;;;;;;47.17;18.00;;;;;;;3.76;100.00;101299.00;5070992;28;20501;-69
2022/12/05 01:50:53;;;;;;;42.90;15.23;;;;;;;3.79;100.00;101300.38;5073091;28;20417;-69
2022/12/05 01:53:20;;;;;;;54.00;18.83;;;;;;;3.75;100.00;101299.22;5071954;28;20515;-68
2022/12/05 01:55:49;;;;;;;49.77;17.97;;;;;;;3.69;100.00;101298.31;5072043;28;20481;-69
2022/12/05 01:58:17;;;;;;;49.30;17.10;;;;;;;3.76;100.00;101293.66;5071068;28;20557;-68
2022/12/05 02:00:44;;;;;;;60.53;19.70;;;;;;;3.74;100.00;101290.38;5071746;28;20543;-69
2022/12/05 02:03:17;;;;;;;48.50;16.87;;;;;;;3.77;100.00;101294.47;5072127;28;21022;-69
2022/12/05 02:05:46;;;;;;;50.60;18.50;;;;;;;3.76;100.00;101292.81;5072159;28;20457;-69
2022/12/05 02:08:14;;;;;;;53.00;17.87;;;;;;;3.72;100.00;101289.81;5071518;28;20559;-69
2022/12/05 02:10:44;;;;;;;65.07;22.03;;;;;;;3.70;100.00;101288.41;5071149;28;20536;-69
2022/12/05 02:13:31;;;;;;;42.60;16.00;;;;;;;3.70;100.00;101291.09;5071407;28;20519;-69
2022/12/05 02:16:03;;;;;;;55.70;18.67;;;;;;;3.75;100.00;101293.88;5072174;28;20543;-69
2022/12/05 02:18:43;;;;;;;56.63;19.53;;;;;;;3.77;100.00;101299.81;5071964;28;20477;-69
2022/12/05 02:21:38;;;;;;;60.80;18.60;;;;;;;3.86;100.00;101300.25;5071889;28;20453;-69
2022/12/05 02:24:40;;;;;;;45.00;17.57;;;;;;;3.90;100.00;101296.88;5069208;28;20836;-70
2022/12/05 02:27:22;;;;;;;53.90;18.90;;;;;;;3.91;100.00;101303.03;5057412;28;20456;-69
2022/12/05 02:30:05;;;;;;;48.87;19.50;;;;;;;3.95;100.00;101299.63;5070700;28;20477;-69
2022/12/05 02:32:43;;;;;;;64.47;17.67;;;;;;;3.78;100.00;101296.88;5069985;28;20547;-70
2022/12/05 02:35:21;;;;;;;59.27;18.67;;;;;;;3.85;100.00;101301.28;5072586;28;20453;-69
2022/12/05 02:37:54;;;;;;;48.63;16.40;;;;;;;3.83;100.00;101300.72;5075408;28;20467;-69
2022/12/05 02:40:26;;;;;;;38.47;15.87;;;;;;;3.82;100.00;101305.28;5075757;28;20467;-69
2022/12/05 02:42:59;;;;;;;61.43;18.30;;;;;;;3.75;100.00;101299.22;5073849;28;20449;-69
2022/12/05 02:45:30;;;;;;;57.03;18.30;;;;;;;3.79;100.00;101309.22;5074103;28;20468;-69
2022/12/05 02:47:59;;;;;;;67.13;17.93;;;;;;;3.84;100.00;101307.69;5075544;28;20510;-69
2022/12/05 02:50:32;;;;;;;54.93;18.00;;;;;;;3.86;100.00;101310.97;5075997;28;20466;-69
2022/12/05 02:53:02;;;;;;;48.63;17.73;;;;;;;3.83;100.00;101306.09;5074859;28;20564;-69
2022/12/05 02:55:32;;;;;;;47.40;16.17;;;;;;;3.91;100.00;101303.84;5074416;28;20789;-70
2022/12/05 02:58:04;;;;;;;44.80;18.13;;;;;;;3.88;100.00;101298.94;5075210;28;20484;-69
2022/12/05 03:00:34;;;;;;;50.63;18.47;;;;;;;3.84;100.00;101295.13;5074656;28;20481;-69
2022/12/05 03:03:01;;;;;;;56.93;16.40;;;;;;;3.78;100.00;101286.19;5071533;28;20519;-70
2022/12/05 03:05:37;;;;;;;52.80;14.80;;;;;;;3.80;100.00;101286.72;5074806;28;20949;-69
2022/12/05 03:08:08;;;;;;;44.23;15.80;;;;;;;3.77;100.00;101287.22;5074029;28;20453;-69
2022/12/05 03:10:37;;;;;;;41.40;15.60;;;;;;;3.77;100.00;101275.72;5074469;28;20976;-69
2022/12/05 03:13:09;;;;;;;45.67;17.00;;;;;;;3.89;100.00;101278.31;5073597;28;21014;-69
2022/12/05 03:15:40;;;;;;;57.50;17.00;;;;;;;3.89;100.00;101279.13;5074398;28;20557;-69
2022/12/05 03:18:15;;;;;;;43.90;16.20;;;;;;;3.79;100.00;101274.41;5074250;28;20535;-68
2022/12/05 03:20:45;;;;;;;40.90;16.70;;;;;;;3.80;100.00;101278.69;5075308;28;20930;-68
2022/12/05 03:23:16;;;;;;;45.03;15.37;;;;;;;3.80;100.00;101276.03;5074822;28;20476;-69
2022/12/05 03:25:52;;;;;;;45.13;15.93;;;;;;;3.74;100.00;101271.63;5074011;28;20539;-69
2022/12/05 03:28:24;;;;;;;39.77;15.87;;;;;;;3.68;100.00;101274.47;5074398;28;21002;-69
2022/12/05 03:30:53;;;;;;;55.47;16.70;;;;;;;3.66;100.00;101273.88;5073397;28;20457;-69
2022/12/05 03:33:23;;;;;;;33.37;13.63;;;;;;;3.72;100.00;101275.63;5073620;28;20547;-69
2022/12/05 03:36:01;;;;;;;38.70;15.07;;;;;;;3.75;100.00;101270.56;5072608;28;20544;-68
2022/12/05 03:38:33;;;;;;;37.17;15.30;;;;;;;3.83;100.00;101281.97;5074253;28;21025;-69
2022/12/05 03:41:08;;;;;;;37.13;14.93;;;;;;;3.83;100.00;101279.28;5075164;28;20457;-68
2022/12/05 03:43:42;;;;;;;41.13;13.53;;;;;;;3.84;100.00;101280.91;5074473;28;20453;-69
2022/12/05 03:46:14;;;;;;;33.87;14.80;;;;;;;3.82;100.00;101272.31;5070958;28;20459;-69
2022/12/05 03:48:50;;;;;;;36.53;14.00;;;;;;;3.84;100.00;101278.22;5073628;28;20485;-69
2022/12/05 03:51:20;;;;;;;37.00;12.83;;;;;;;3.78;100.00;101277.31;5074095;28;21025;-69
2022/12/05 03:53:51;;;;;;;38.30;13.53;;;;;;;3.71;100.00;101274.78;5074113;28;20473;-69
2022/12/05 03:56:24;;;;;;;37.77;13.37;;;;;;;3.73;100.00;101283.41;5073911;28;20461;-69
2022/12/05 03:58:58;;;;;;;38.07;13.73;;;;;;;3.71;100.00;101282.00;5073166;28;20484;-69
2022/12/05 04:01:30;;;;;;;37.67;12.60;;;;;;;3.79;100.00;101282.44;5072484;28;20458;-69
2022/12/05 04:04:02;;;;;;;39.93;14.77;;;;;;;3.79;100.00;101271.72;5074547;28;20847;-69
2022/12/05 04:06:31;;;;;;;39.33;14.93;;;;;;;3.76;100.00;101266.03;5073621;28;20452;-69
2022/12/05 04:09:02;;;;;;;33.50;12.03;;;;;;;3.75;100.00;101267.88;5073783;28;20948;-70
2022/12/05 04:11:34;;;;;;;32.60;11.47;;;;;;;3.70;100.00;101269.66;5072990;28;20468;-68
2022/12/05 04:14:06;;;;;;;29.90;11.10;;;;;;;3.75;100.00;101273.25;5054276;28;20462;-68
2022/12/05 04:19:27;;;;;;;27.77;11.97;;;;;;;3.80;100.00;101265.31;5058079;28;20477;-68
2022/12/05 04:21:55;;;;;;;30.80;12.77;;;;;;;3.80;100.00;101267.97;5073180;28;20453;-67
2022/12/05 04:27:21;;;;;;;31.50;12.03;;;;;;;3.75;100.00;101277.78;5071717;28;20449;-69
2022/12/05 04:29:54;;;;;;;34.17;11.90;;;;;;;3.74;100.00;101268.94;5071325;28;20492;-68
2022/12/05 04:32:28;;;;;;;26.17;12.10;;;;;;;3.74;100.00;101268.94;5072727;28;20459;-68
2022/12/05 04:34:59;;;;;;;35.87;12.67;;;;;;;3.78;100.00;101264.75;5073048;28;20460;-68
2022/12/05 04:37:31;;;;;;;35.13;12.27;;;;;;;3.85;100.00;101269.97;5072266;28;20464;-68
2022/12/05 04:40:06;;;;;;;41.47;14.57;;;;;;;3.84;100.00;101264.84;5071704;28;20563;-68
2022/12/05 04:42:36;;;;;;;24.70;10.73;;;;;;;3.84;100.00;101272.88;5072231;28;20454;-69
2022/12/05 04:45:06;;;;;;;27.57;11.77;;;;;;;3.81;100.00;101271.50;5071820;28;20467;-69
2022/12/05 04:47:39;;;;;;;28.33;11.90;;;;;;;3.67;100.00;101270.94;5072717;28;20458;-67
2022/12/05 04:50:10;;;;;;;31.87;11.97;;;;;;;3.66;100.00;101263.97;5072344;28;21030;-68
2022/12/05 04:52:39;;;;;;;36.20;11.23;;;;;;;3.72;100.00;101267.56;5072619;28;20479;-69
2022/12/05 04:55:09;;;;;;;39.20;13.90;;;;;;;3.73;100.00;101270.00;5072456;28;20457;-69
2022/12/05 04:57:44;;;;;;;33.37;11.87;;;;;;;3.72;100.00;101271.06;5071373;28;20563;-69
2022/12/05 05:00:11;;;;;;;23.43;9.57;;;;;;;3.80;100.00;101269.84;5070425;28;20513;-66
2022/12/05 05:02:44;;;;;;;30.70;12.50;;;;;;;3.82;100.00;101267.75;5072695;28;20477;-65
2022/12/05 05:05:13;;;;;;;40.70;11.87;;;;;;;3.83;100.00;101271.25;5071876;28;20536;-69
2022/12/05 05:07:44;;;;;;;26.53;12.37;;;;;;;3.87;100.00;101270.53;5071744;28;20508;-68
2022/12/05 05:10:14;;;;;;;38.53;13.40;;;;;;;3.86;100.00;101262.75;5072784;28;20893;-68
2022/12/05 05:12:41;;;;;;;39.07;10.77;;;;;;;3.79;100.00;101274.41;5070792;28;20572;-68
2022/12/05 05:15:08;;;;;;;32.27;12.10;;;;;;;3.75;100.00;101272.44;5071881;28;21032;-68
2022/12/05 05:17:35;;;;;;;40.00;10.87;;;;;;;3.84;100.00;101276.34;5071716;28;20973;-68
2022/12/05 05:22:44;;;;;;;25.93;11.50;;;;;;;3.89;100.00;101272.97;5071876;28;20498;-68
2022/12/05 05:25:10;;;;;;;24.50;9.73;;;;;;;3.87;100.00;101269.72;5072324;28;20453;-68
2022/12/05 05:27:37;;;;;;;30.23;11.27;;;;;;;3.85;100.00;101277.16;5071914;28;20544;-68
2022/12/05 05:30:05;;;;;;;32.70;13.20;;;;;;;3.82;100.00;101277.66;5070853;28;20907;-68
2022/12/05 05:32:32;;;;;;;33.60;13.17;;;;;;;3.83;100.00;101269.38;5072248;28;20469;-68
2022/12/05 05:34:59;;;;;;;35.80;11.93;;;;;;;3.85;100.00;101278.00;5071126;28;20504;-68
2022/12/05 05:37:27;;;;;;;22.60;10.10;;;;;;;3.80;100.00;101280.56;5070729;28;20485;-68
2022/12/05 05:39:53;;;;;;;31.00;12.40;;;;;;;3.82;100.00;101272.31;5072196;28;20477;-68
2022/12/05 05:42:20;;;;;;;29.27;11.27;;;;;;;3.84;100.00;101272.88;5072034;28;20493;-68
2022/12/05 05:44:47;;;;;;;31.47;11.60;;;;;;;3.82;100.00;101272.31;5068919;28;20540;-68
2022/12/05 05:47:13;;;;;;;30.60;12.10;;;;;;;3.85;100.00;101274.50;5071036;28;20493;-64
2022/12/05 05:49:40;;;;;;;22.87;9.83;;;;;;;3.77;100.00;101273.84;5070582;28;21005;-66
2022/12/05 05:52:06;;;;;;;27.93;10.00;;;;;;;3.71;100.00;101271.28;5071810;28;20557;-65
2022/12/05 05:54:34;;;;;;;27.57;11.17;;;;;;;3.80;100.00;101276.03;5072852;28;20484;-65
2022/12/05 05:57:01;;;;;;;25.03;9.90;;;;;;;3.88;100.00;101269.47;5072274;28;20457;-64
2022/12/05 05:59:27;;;;;;;30.53;10.90;;;;;;;3.90;100.00;101277.28;5072730;28;20506;-65
2022/12/05 06:01:54;;;;;;;30.83;10.53;;;;;;;3.88;100.00;101287.41;5071082;28;20463;-65
2022/12/05 06:04:20;;;;;;;24.23;9.93;;;;;;;3.91;100.00;101276.22;5072635;28;20528;-66
2022/12/05 06:06:47;;;;;;;23.40;9.70;;;;;;;3.93;100.00;101284.84;5071268;28;20540;-65
2022/12/05 06:09:13;;;;;;;22.70;10.60;;;;;;;3.84;100.00;101287.06;5070298;28;20480;-65
2022/12/05 06:11:41;;;;;;;23.00;7.77;;;;;;;3.85;100.00;101282.53;5075766;28;20982;-65
2022/12/05 06:14:08;;;;;;;21.20;10.53;;;;;;;3.84;100.00;101279.03;5075674;28;20481;-65
2022/12/05 06:16:35;;;;;;;33.23;10.33;;;;;;;3.85;100.00;101287.88;5076419;28;20447;-65
2022/12/05 06:19:02;;;;;;;21.87;9.30;;;;;;;3.90;100.00;101290.69;5074354;28;20909;-65
2022/12/05 06:21:28;;;;;;;21.10;8.03;;;;;;;3.89;100.00;101294.41;5070402;28;20479;-66
2022/12/05 06:23:55;;;;;;;20.70;9.20;;;;;;;3.92;100.00;101296.63;5075690;28;20459;-65
2022/12/05 06:26:22;;;;;;;23.70;9.10;;;;;;;3.93;100.00;101292.88;5075945;28;20456;-65
2022/12/05 06:28:50;;;;;;;23.90;9.20;;;;;;;3.91;100.00;101290.44;5074801;28;20465;-65
2022/12/05 06:31:19;;;;;;;18.23;7.50;;;;;;;3.93;100.00;101291.00;5076072;28;20449;-65
2022/12/05 06:33:46;;;;;;;19.80;7.77;;;;;;;3.96;100.00;101292.41;5075949;28;20560;-66
2022/12/05 06:36:16;;;;;;;20.57;9.60;;;;;;;3.96;100.00;101293.22;5075977;28;20484;-66
2022/12/05 06:38:43;;;;;;;17.00;7.40;;;;;;;3.92;100.00;101299.28;5075947;28;20471;-66
2022/12/05 06:41:14;;;;;;;22.87;8.23;;;;;;;3.96;100.00;101301.25;5075870;28;20441;-66
2022/12/05 06:43:40;;;;;;;24.70;8.70;;;;;;;3.92;100.00;101307.34;5076018;28;20479;-65
2022/12/05 06:46:11;;;;;;;18.30;8.77;;;;;;;3.95;100.00;101309.53;5075603;28;20441;-66
2022/12/05 06:48:38;;;;;;;20.50;7.07;;;;;;;3.91;100.00;101308.41;5075595;28;20464;-66
2022/12/05 06:51:06;;;;;;;24.13;9.50;;;;;;;3.88;100.00;101315.03;5075519;28;20450;-65
2022/12/05 06:53:32;;;;;;;16.50;7.30;;;;;;;3.94;100.00;101313.25;5075350;28;20990;-66
2022/12/05 06:56:01;;;;;;;18.00;7.07;;;;;;;3.95;100.00;101314.91;5075653;28;20437;-66
2022/12/05 06:58:28;;;;;;;17.73;7.23;;;;;;;3.99;100.00;101322.22;5075532;28;20465;-66
2022/12/05 07:03:55;;;;;;;17.00;6.70;;;;;;;3.97;100.00;101323.50;5053397;28;20939;-66
2022/12/05 07:06:22;;;;;;;21.00;7.63;;;;;;;4.03;100.00;101327.94;5053157;28;20541;-66
2022/12/05 07:08:48;;;;;;;20.27;7.87;;;;;;;3.89;100.00;101321.19;5079629;22;20494;-73
2022/12/05 07:11:15;;;;;;;13.57;6.90;;;;;;;3.93;100.00;101319.66;5056071;28;20619;-70
2022/12/05 07:13:42;;;;;;;21.23;7.70;;;;;;;3.92;100.00;101326.09;5055473;28;20482;-70
2022/12/05 07:16:09;;;;;;;15.57;6.93;;;;;;;3.92;100.00;101326.09;5055537;28;20442;-70
2022/12/05 07:18:36;;;;;;;21.50;8.97;;;;;;;3.94;100.00;101324.81;5055126;28;20961;-70
2022/12/05 07:21:07;;;;;;;21.20;8.10;;;;;;;3.90;100.00;101326.34;5055222;28;20542;-70
2022/12/05 07:23:34;;;;;;;20.07;8.63;;;;;;;3.93;100.00;101325.03;5055371;28;20512;-70
2022/12/05 07:26:04;;;;;;;17.23;8.03;;;;;;;3.92;100.00;101318.88;5055233;28;20516;-70
2022/12/05 07:28:31;;;;;;;21.40;8.90;;;;;;;3.97;100.00;101324.31;5055280;28;20418;-69
2022/12/05 07:31:02;;;;;;;20.10;8.87;;;;;;;3.99;100.00;101327.59;5054732;28;20496;-70
2022/12/05 07:33:28;;;;;;;17.10;6.50;;;;;;;3.97;100.00;101326.19;5054699;28;21029;-69
2022/12/05 07:35:59;;;;;;;20.77;6.77;;;;;;;4.00;100.00;101333.75;5055158;28;20529;-69
2022/12/05 07:38:28;;;;;;;16.93;6.93;;;;;;;3.95;100.00;101326.44;5054966;28;20434;-69
2022/12/05 07:40:55;;;;;;;19.20;8.77;;;;;;;3.99;100.00;101326.78;5054657;28;20980;-70
2022/12/05 07:43:21;;;;;;;16.77;6.90;;;;;;;3.99;100.00;101327.59;5054643;28;20517;-70
2022/12/05 07:45:48;;;;;;;15.13;7.10;;;;;;;3.97;100.00;101321.63;5054951;28;20442;-69
2022/12/05 07:48:14;;;;;;;25.30;8.17;;;;;;;3.93;100.00;101327.72;5054597;28;20449;-69
2022/12/05 07:50:41;;;;;;;25.33;8.50;;;;;;;3.98;100.00;101325.13;5054424;28;20501;-69
2022/12/05 07:53:08;;;;;;;22.40;8.33;;;;;;;3.98;100.00;101325.13;5054360;28;20868;-70
2022/12/05 07:55:37;;;;;;;14.97;6.50;;;;;;;3.92;100.00;101326.09;5054714;28;20898;-69
2022/12/05 07:58:04;;;;;;;23.00;7.37;;;;;;;3.96;100.00;101321.88;5054745;28;20520;-70
2022/12/05 08:00:30;;;;;;;22.60;7.23;;;;;;;3.94;100.00;101327.50;5054580;28;20465;-68
2022/12/05 08:02:57;;;;;;;18.57;7.77;;;;;;;4.03;100.00;101325.25;5054546;28;20445;-73
2022/12/05 08:05:24;;;;;;;16.77;6.83;;;;;;;4.05;100.00;101325.81;5054487;28;20477;-68
2022/12/05 08:07:50;;;;;;;16.63;6.53;;;;;;;4.00;100.00;101334.56;5054116;28;20538;-72
2022/12/05 08:10:17;;;;;;;16.90;7.53;;;;;;;4.03;100.00;101327.94;5054039;28;20480;-72
2022/12/05 08:12:45;;;;;;;16.00;7.90;;;;;;;4.07;100.00;101329.06;5054134;28;20464;-72
2022/12/05 08:15:11;;;;;;;17.00;7.23;;;;;;;4.02;100.00;101332.44;5054271;28;20850;-71
2022/12/05 08:17:38;;;;;;;14.60;7.13;;;;;;;4.01;100.00;101330.81;5054344;28;20438;-71
2022/12/05 08:20:06;;;;;;;19.40;7.77;;;;;;;4.06;100.00;101332.78;5054106;28;20462;-73
2022/12/05 08:22:32;;;;;;;19.53;7.47;;;;;;;4.01;100.00;101332.69;5054197;28;20445;-70
2022/12/05 08:24:59;;;;;;;19.77;8.27;;;;;;;3.99;100.00;101326.78;5053854;28;20481;-69
2022/12/05 08:27:26;;;;;;;19.77;7.23;;;;;;;3.98;100.00;101331.28;5054033;28;20446;-69
2022/12/05 08:29:55;;;;;;;15.83;7.77;;;;;;;4.08;100.00;101335.25;5054010;28;20458;-67
2022/12/05 08:32:21;;;;;;;23.43;8.20;;;;;;;4.12;100.00;101331.00;5053201;28;20529;-69
2022/12/05 08:34:48;;;;;;;16.90;7.47;;;;;;;4.13;100.00;101328.13;5053925;28;20486;-69
2022/12/05 08:37:14;;;;;;;23.23;8.40;;;;;;;4.21;100.00;101329.59;5053912;28;20492;-69
2022/12/05 08:39:41;;;;;;;18.73;7.50;;;;;;;4.20;100.00;101336.81;5053801;28;20549;-70
2022/12/05 08:42:07;;;;;;;18.73;7.63;;;;;;;4.22;100.00;101329.34;5053683;28;20478;-71
2022/12/05 08:44:34;;;;;;;20.87;8.20;;;;;;;4.21;100.00;101330.41;5053325;28;20973;-70
2022/12/05 08:47:02;;;;;;;17.67;8.00;;;;;;;4.19;100.00;101331.69;5053862;28;20537;-70
2022/12/05 08:49:29;;;;;;;21.20;7.10;;;;;;;4.23;100.00;101322.94;5053701;28;20524;-70
2022/12/05 08:51:55;;;;;;;18.50;7.97;;;;;;;4.23;100.00;101327.47;5053936;28;20438;-67
2022/12/05 08:54:22;;;;;;;20.30;8.20;;;;;;;4.24;100.00;101335.28;5053310;28;20494;-69
2022/12/05 08:56:50;;;;;;;16.97;7.60;;;;;;;4.27;100.00;101332.13;5053357;28;20533;-70
2022/12/05 08:59:17;;;;;;;18.30;6.80;;;;;;;4.29;100.00;101330.03;5053488;28;20494;-67
2022/12/05 09:01:43;;;;;;;21.20;7.97;;;;;;;4.26;100.00;101327.00;5053542;28;20446;-68
2022/12/05 09:04:12;;;;;;;20.53;7.90;;;;;;;4.25;100.00;101323.53;5053174;28;20478;-70
2022/12/05 09:06:40;;;;;;;22.33;7.40;;;;;;;4.34;100.00;101328.47;5053134;28;20438;-68
2022/12/05 09:09:10;;;;;;;21.50;8.40;;;;;;;4.34;100.00;101334.69;5053210;28;20497;-70
2022/12/05 09:11:40;;;;;;;14.50;6.83;;;;;;;4.40;100.00;101330.22;5053161;28;20445;-68
2022/12/05 09:14:06;;;;;;;20.40;8.97;;;;;;;4.34;100.00;101331.16;5053261;28;20486;-68
2022/12/05 09:16:35;;;;;;;15.53;6.87;;;;;;;4.36;100.00;101326.38;5053244;28;20478;-68
2022/12/05 09:19:01;;;;;;;19.40;7.80;;;;;;;4.40;100.00;101327.53;5053146;28;20486;-68
2022/12/05 09:21:31;;;;;;;20.57;8.63;;;;;;;4.36;100.00;101329.88;5053270;28;20438;-68
2022/12/05 09:23:58;;;;;;;20.47;7.07;;;;;;;4.43;100.00;101325.19;5053142;28;20442;-68
2022/12/05 09:26:27;;;;;;;21.70;7.60;;;;;;;4.50;100.00;101325.00;5052803;28;20531;-68
2022/12/05 09:28:53;;;;;;;15.47;7.63;;;;;;;4.50;100.00;101319.66;5053080;28;20485;-69
2022/12/05 09:31:23;;;;;;;17.93;7.10;;;;;;;4.43;100.00;101322.50;5048424;28;20541;-68
2022/12/05 09:33:51;;;;;;;18.23;7.70;;;;;;;4.43;100.00;101321.69;5050174;28;20490;-69
2022/12/05 09:36:19;;;;;;;16.97;7.83;;;;;;;4.45;100.00;101330.28;5051021;28;20460;-71
2022/12/05 09:38:47;;;;;;;19.40;8.13;;;;;;;4.40;100.00;101324.84;5051912;28;20490;-69
2022/12/05 09:44:16;;;;;;;25.27;8.20;;;;;;;4.33;100.00;101318.81;5051325;28;20486;-69
2022/12/05 09:46:52;;;;;;;16.30;8.17;;;;;;;4.35;100.00;101324.75;5056797;28;20437;-68
2022/12/05 09:49:19;;;;;;;21.77;8.37;;;;;;;4.33;100.00;101322.28;5056040;28;20481;-69
2022/12/05 09:51:48;;;;;;;38.53;9.20;;;;;;;4.31;100.00;101319.06;5057418;28;20445;-69
2022/12/05 09:54:17;;;;;;;14.73;7.20;;;;;;;4.34;100.00;101326.63;5055722;28;20492;-69
2022/12/05 09:56:45;;;;;;;19.17;9.03;;;;;;;4.36;100.00;101321.00;5057351;28;20446;-68
2022/12/05 09:59:14;;;;;;;21.53;8.50;;;;;;;4.40;100.00;101322.16;5055196;28;20480;-69
2022/12/05 10:01:45;;;;;;;23.07;7.87;;;;;;;4.48;100.00;101321.78;5056827;28;20441;-69
2022/12/05 10:04:22;;;;;;;22.97;9.27;;;;;;;4.45;100.00;101322.25;5055651;28;20478;-69
2022/12/05 10:06:59;;;;;;;22.47;10.60;;;;;;;4.44;100.00;101315.25;5055442;28;20461;-69
2022/12/05 10:09:41;;;;;;;22.03;9.10;;;;;;;4.39;100.00;101313.31;5054479;28;20529;-68
2022/12/05 10:12:20;;;;;;;24.20;9.73;;;;;;;4.43;100.00;101317.13;5056606;28;20963;-69
2022/12/05 10:14:59;;;;;;;27.03;9.37;;;;;;;4.46;100.00;101315.81;5056573;28;20466;-68
2022/12/05 10:17:30;;;;;;;23.00;8.13;;;;;;;4.47;100.00;101309.38;5056582;28;20423;-68
2022/12/05 10:20:00;;;;;;;20.90;9.00;;;;;;;4.45;100.00;101309.66;5056209;28;20470;-68
2022/12/05 10:22:32;;;;;;;22.27;10.10;;;;;;;4.45;100.00;101311.50;5056181;28;20826;-68
2022/12/05 10:25:04;;;;;;;28.43;10.27;;;;;;;4.42;100.00;101309.31;5055541;28;20426;-68
2022/12/05 10:27:35;;;;;;;23.77;8.90;;;;;;;4.42;100.00;101301.25;5054360;28;20489;-68
2022/12/05 10:30:05;;;;;;;25.10;9.33;;;;;;;4.34;100.00;101307.00;5052506;28;20474;-68
2022/12/05 10:32:36;;;;;;;22.63;8.63;;;;;;;4.35;100.00;101314.84;5055698;28;20874;-68
2022/12/05 10:35:15;;;;;;;24.70;8.90;;;;;;;4.40;100.00;101322.16;5036056;28;20963;-68
2022/12/05 10:37:46;;;;;;;21.37;8.80;;;;;;;4.43;100.00;101321.69;5036400;28;20431;-70
2022/12/05 10:40:14;;;;;;;20.30;8.57;;;;;;;4.40;100.00;101317.59;5056113;28;20470;-68
2022/12/05 10:42:41;;;;;;;24.17;8.83;;;;;;;4.42;100.00;101312.00;5055221;28;20965;-70
2022/12/05 10:45:15;;;;;;;26.53;10.10;;;;;;;4.45;100.00;101316.88;5055826;28;21011;-69
2022/12/05 10:47:41;;;;;;;25.23;9.20;;;;;;;4.39;100.00;101302.56;5054939;28;20426;-70
2022/12/05 10:50:24;;;;;;;17.30;7.23;;;;;;;4.41;100.00;101305.00;5055458;28;20502;-69
2022/12/05 10:52:52;;;;;;;24.07;9.23;;;;;;;4.40;100.00;101306.06;5054998;28;20422;-68
2022/12/05 10:55:20;;;;;;;19.10;7.83;;;;;;;4.42;100.00;101306.63;5055314;28;20569;-69
2022/12/05 10:57:50;;;;;;;17.87;7.70;;;;;;;4.37;100.00;101310.03;5054442;28;20477;-70
2022/12/05 11:00:22;;;;;;;17.10;8.30;;;;;;;4.41;100.00;101313.06;5055700;28;20545;-68
2022/12/05 11:02:49;;;;;;;23.17;10.40;;;;;;;4.46;100.00;101310.44;5055007;28;20480;-69
2022/12/05 11:05:27;;;;;;;19.17;8.07;;;;;;;4.44;100.00;101305.34;5037197;28;20454;-69
2022/12/05 11:07:56;;;;;;;17.57;8.03;;;;;;;4.39;100.00;101302.56;5036698;28;20544;-71
2022/12/05 11:10:27;;;;;;;19.07;8.97;;;;;;;4.45;100.00;101300.78;5055155;28;20576;-68
2022/12/05 11:12:55;;;;;;;19.67;8.63;;;;;;;4.43;100.00;101314.44;5054221;28;20430;-69
2022/12/05 11:15:24;;;;;;;23.13;8.67;;;;;;;4.48;100.00;101300.31;5054647;28;20492;-68
2022/12/05 11:17:52;;;;;;;19.20;8.13;;;;;;;4.57;100.00;101301.53;5054984;28;20833;-68
2022/12/05 11:20:41;;;;;;;21.90;9.00;;;;;;;4.60;100.00;101302.91;5054074;28;20517;-68
2022/12/05 11:23:27;;;;;;;29.37;7.70;;;;;;;4.65;100.00;101297.63;5055165;28;20514;-70
2022/12/05 11:25:56;;;;;;;19.43;8.40;;;;;;;4.66;100.00;101299.25;5055422;28;20483;-68
2022/12/05 11:28:30;;;;;;;22.70;8.10;;;;;;;4.65;100.00;101292.25;5054934;28;20967;-68
2022/12/05 11:30:58;;;;;;;20.57;7.90;;;;;;;4.63;100.00;101305.09;5055318;28;20459;-69
2022/12/05 11:33:27;;;;;;;18.90;8.37;;;;;;;4.64;100.00;101293.31;5055230;28;20546;-69
2022/12/05 11:35:56;;;;;;;22.73;9.47;;;;;;;4.63;100.00;101299.75;5050869;28;20482;-68
2022/12/05 11:38:26;;;;;;;24.20;9.40;;;;;;;4.54;100.00;101293.97;5052194;28;21029;-68